createdAt,value
2022-11-18T00:00:53.926Z,35.20
2022-11-18T00:01:54.062Z,39.20
2022-11-18T00:02:53.988Z,34.80
2022-11-18T00:03:53.921Z,33.40
2022-11-18T00:04:53.905Z,30.30
2022-11-18T00:05:53.904Z,29.70
2022-11-18T00:06:53.951Z,34.90
2022-11-18T00:07:53.888Z,28.70
2022-11-18T00:08:53.877Z,29.90
2022-11-18T00:09:53.879Z,32.70
2022-11-18T00:10:53.870Z,27.00
2022-11-18T00:11:53.842Z,35.20
2022-11-18T00:12:53.858Z,27.50
2022-11-18T00:13:53.852Z,28.60
2022-11-18T00:14:53.840Z,36.50
2022-11-18T00:15:53.863Z,39.00
2022-11-18T00:16:53.868Z,39.00
2022-11-18T00:17:53.835Z,39.00
2022-11-18T00:18:53.788Z,49.70
2022-11-18T00:19:53.825Z,64.30
2022-11-18T00:20:53.781Z,55.90
2022-11-18T00:21:53.771Z,48.90
2022-11-18T00:22:53.779Z,41.00
2022-11-18T00:23:53.829Z,32.60
2022-11-18T00:24:54.006Z,41.20
2022-11-18T00:25:53.783Z,48.20
2022-11-18T00:26:53.723Z,60.90
2022-11-18T00:27:53.733Z,60.70
2022-11-18T00:28:53.716Z,55.80
2022-11-18T00:29:53.741Z,100.80
2022-11-18T00:30:53.729Z,103.90
2022-11-18T00:31:53.724Z,87.30
2022-11-18T00:32:53.706Z,67.10
2022-11-18T00:33:53.675Z,82.90
2022-11-18T00:34:53.673Z,88.50
2022-11-18T00:35:53.688Z,106.00
2022-11-18T00:36:53.681Z,128.60
2022-11-18T00:37:53.672Z,104.40
2022-11-18T00:38:53.638Z,113.20
2022-11-18T00:39:53.672Z,169.60
2022-11-18T00:40:53.686Z,100.80
2022-11-18T00:41:53.660Z,175.00
2022-11-18T00:42:53.625Z,129.50
2022-11-18T00:43:53.627Z,161.40
2022-11-18T00:44:53.611Z,146.90
2022-11-18T00:45:53.588Z,147.80
2022-11-18T00:46:53.603Z,231.90
2022-11-18T00:47:53.593Z,146.40
2022-11-18T00:48:53.578Z,182.40
2022-11-18T00:49:53.565Z,188.00
2022-11-18T00:50:53.568Z,188.30
2022-11-18T00:51:53.580Z,226.50
2022-11-18T00:52:53.603Z,282.30
2022-11-18T00:53:53.526Z,177.50
2022-11-18T00:54:54.541Z,254.40
2022-11-18T00:55:53.588Z,217.60
2022-11-18T00:56:53.526Z,151.80
2022-11-18T00:57:53.589Z,165.50
2022-11-18T00:58:53.536Z,169.00
2022-11-18T00:59:53.519Z,121.50
2022-11-18T01:00:53.528Z,121.60
2022-11-18T01:01:53.565Z,129.80
2022-11-18T01:02:53.463Z,124.10
2022-11-18T01:03:53.475Z,142.90
2022-11-18T01:04:53.452Z,137.90
2022-11-18T01:05:53.467Z,133.40
2022-11-18T01:06:53.517Z,104.40
2022-11-18T01:07:53.434Z,83.60
2022-11-18T01:08:53.462Z,94.40
2022-11-18T01:09:53.447Z,73.60
2022-11-18T01:10:53.465Z,61.10
2022-11-18T01:11:53.414Z,61.30
2022-11-18T01:12:54.611Z,55.10
2022-11-18T01:13:54.392Z,50.30
2022-11-18T01:14:53.408Z,40.20
2022-11-18T01:15:53.428Z,33.80
2022-11-18T01:16:53.388Z,27.50
2022-11-18T01:17:53.358Z,29.20
2022-11-18T01:18:53.369Z,32.80
2022-11-18T01:19:53.384Z,26.90
2022-11-18T01:20:53.330Z,25.40
2022-11-18T01:21:53.330Z,27.30
2022-11-18T01:22:53.328Z,27.70
2022-11-18T01:23:53.367Z,29.80
2022-11-18T01:24:53.372Z,34.90
2022-11-18T01:25:53.285Z,41.20
2022-11-18T01:26:53.283Z,49.30
2022-11-18T01:27:53.278Z,99.80
2022-11-18T01:28:53.293Z,144.00
2022-11-18T01:29:53.292Z,163.10
2022-11-18T01:30:53.256Z,251.40
2022-11-18T01:32:22.982Z,208.60
2022-11-18T01:32:55.256Z,267.10
2022-11-18T01:33:53.307Z,172.00
2022-11-18T01:34:53.238Z,126.60
2022-11-18T01:35:53.271Z,151.20
2022-11-18T01:36:53.239Z,195.40
2022-11-18T01:37:53.222Z,212.50
2022-11-18T01:38:53.196Z,289.20
2022-11-18T01:39:53.211Z,452.20
2022-11-18T01:40:53.206Z,411.20
2022-11-18T01:41:53.210Z,383.10
2022-11-18T01:42:53.314Z,206.10
2022-11-18T01:43:53.172Z,219.00
2022-11-18T01:44:53.186Z,322.00
2022-11-18T02:02:46.714Z,54.90
2022-11-18T02:03:46.713Z,53.20
2022-11-18T02:04:46.699Z,56.30
2022-11-18T02:05:47.827Z,58.40
2022-11-18T02:06:47.900Z,64.00
2022-11-18T02:07:47.798Z,60.20
2022-11-18T02:08:47.827Z,47.40
2022-11-18T02:09:47.813Z,48.80
2022-11-18T02:10:47.772Z,48.60
2022-11-18T02:11:47.838Z,45.30
2022-11-18T02:12:47.922Z,40.10
2022-11-18T02:13:47.871Z,45.40
2022-11-18T02:14:47.747Z,44.80
2022-11-18T02:15:47.761Z,39.50
2022-11-18T02:16:47.760Z,37.80
2022-11-18T02:17:47.742Z,40.80
2022-11-18T02:18:47.718Z,42.80
2022-11-18T02:19:47.705Z,37.70
2022-11-18T02:20:47.720Z,41.70
2022-11-18T02:21:47.695Z,45.60
2022-11-18T02:22:47.683Z,41.60
2022-11-18T02:23:47.737Z,43.00
2022-11-18T02:24:47.722Z,39.00
2022-11-18T02:25:47.668Z,38.80
2022-11-18T02:26:47.681Z,36.90
2022-11-18T02:27:47.647Z,34.80
2022-11-18T02:28:47.687Z,39.90
2022-11-18T02:29:47.656Z,38.90
2022-11-18T02:30:47.688Z,43.00
2022-11-18T02:31:47.653Z,37.80
2022-11-18T02:32:47.607Z,37.10
2022-11-18T02:33:47.634Z,36.20
2022-11-18T02:34:47.610Z,36.20
2022-11-18T02:35:47.643Z,36.30
2022-11-18T02:36:47.628Z,34.80
2022-11-18T02:37:47.680Z,35.20
2022-11-18T02:38:47.563Z,36.90
2022-11-18T02:39:47.566Z,47.70
2022-11-18T02:40:47.547Z,40.10
2022-11-18T02:41:47.585Z,47.40
2022-11-18T02:42:48.556Z,45.10
2022-11-18T02:43:47.545Z,53.40
2022-11-18T02:44:47.527Z,43.20
2022-11-18T02:45:47.556Z,38.40
2022-11-18T02:46:47.551Z,46.90
2022-11-18T02:48:19.425Z,46.30
2022-11-18T02:48:47.514Z,41.10
2022-11-18T02:49:47.509Z,44.50
2022-11-18T02:50:47.489Z,48.80
2022-11-18T02:51:48.480Z,43.20
2022-11-18T02:52:47.477Z,40.50
2022-11-18T02:53:47.483Z,40.80
2022-11-18T02:54:47.493Z,41.90
2022-11-18T02:55:47.472Z,42.00
2022-11-18T02:56:47.433Z,46.80
2022-11-18T02:57:47.432Z,47.40
2022-11-18T02:58:47.427Z,53.60
2022-11-18T02:59:47.401Z,48.10
2022-11-18T03:00:47.423Z,55.40
2022-11-18T03:01:47.447Z,42.20
2022-11-18T03:02:47.392Z,49.10
2022-11-18T03:03:47.387Z,51.00
2022-11-18T03:04:47.385Z,43.70
2022-11-18T03:05:47.379Z,52.80
2022-11-18T03:06:47.398Z,42.70
2022-11-18T03:07:47.372Z,42.40
2022-11-18T03:08:47.338Z,46.30
2022-11-18T03:09:47.388Z,44.30
2022-11-18T03:10:47.405Z,44.50
2022-11-18T03:11:47.386Z,40.10
2022-11-18T03:12:47.320Z,42.20
2022-11-18T03:13:47.348Z,47.90
2022-11-18T03:14:47.317Z,46.50
2022-11-18T03:15:47.287Z,38.60
2022-11-18T03:16:47.278Z,41.80
2022-11-18T03:17:48.321Z,38.40
2022-11-18T03:18:48.318Z,36.70
2022-11-18T03:19:47.272Z,43.10
2022-11-18T03:20:47.278Z,38.50
2022-11-18T03:21:47.253Z,42.00
2022-11-18T03:22:47.263Z,39.70
2022-11-18T03:23:47.240Z,39.20
2022-11-18T03:24:47.258Z,39.10
2022-11-18T03:25:47.203Z,32.60
2022-11-18T03:26:47.255Z,34.80
2022-11-18T03:27:47.284Z,35.80
2022-11-18T03:28:47.206Z,30.30
2022-11-18T03:29:47.219Z,28.10
2022-11-18T03:30:47.223Z,32.90
2022-11-18T03:31:47.227Z,37.80
2022-11-18T03:32:47.192Z,43.60
2022-11-18T03:33:47.164Z,47.70
2022-11-18T03:34:47.154Z,41.30
2022-11-18T03:35:47.152Z,39.10
2022-11-18T03:36:51.646Z,36.90
2022-11-18T03:37:48.147Z,41.90
2022-11-18T03:38:47.127Z,37.60
2022-11-18T03:39:47.132Z,38.10
2022-11-18T03:40:47.134Z,38.80
2022-11-18T03:41:47.105Z,33.40
2022-11-18T03:42:47.116Z,35.90
2022-11-18T03:43:47.097Z,33.80
2022-11-18T03:44:52.087Z,36.60
2022-11-18T03:45:49.082Z,34.90
2022-11-18T03:46:47.069Z,40.30
2022-11-18T04:02:57.587Z,38.90
2022-11-18T04:04:04.615Z,42.60
2022-11-18T04:04:57.575Z,47.00
2022-11-18T04:06:31.628Z,32.90
2022-11-18T04:06:58.779Z,30.40
2022-11-18T04:08:30.626Z,38.40
2022-11-18T04:09:30.576Z,34.70
2022-11-18T04:09:58.671Z,38.60
2022-11-18T04:10:58.728Z,35.00
2022-11-18T04:11:58.661Z,34.10
2022-11-18T04:13:04.707Z,37.70
2022-11-18T04:14:00.646Z,33.30
2022-11-18T04:14:58.636Z,35.70
2022-11-18T04:15:58.615Z,36.80
2022-11-18T04:16:58.613Z,36.90
2022-11-18T04:17:58.623Z,41.00
2022-11-18T04:19:04.390Z,40.10
2022-11-18T04:20:00.587Z,38.40
2022-11-18T04:21:30.500Z,36.70
2022-11-18T04:22:30.495Z,39.80
2022-11-18T04:23:30.475Z,39.80
2022-11-18T04:24:30.471Z,37.80
2022-11-18T04:25:30.478Z,37.30
2022-11-18T04:26:31.009Z,34.90
2022-11-18T04:26:58.634Z,32.00
2022-11-18T04:27:58.657Z,34.50
2022-11-18T04:28:58.552Z,39.00
2022-11-18T04:29:58.536Z,35.40
2022-11-18T04:30:58.533Z,36.50
2022-11-18T04:31:58.506Z,35.50
2022-11-18T04:32:58.527Z,38.40
2022-11-18T04:33:58.579Z,35.60
2022-11-18T04:34:58.534Z,38.20
2022-11-18T04:35:58.566Z,34.40
2022-11-18T04:36:58.526Z,31.80
2022-11-18T04:37:58.519Z,34.20
2022-11-18T04:38:58.518Z,34.60
2022-11-18T04:39:58.502Z,28.70
2022-11-18T04:40:58.489Z,33.90
2022-11-18T04:41:58.561Z,30.80
2022-11-18T04:42:58.480Z,32.00
2022-11-18T04:43:58.464Z,28.10
2022-11-18T04:44:58.456Z,28.70
2022-11-18T04:45:58.436Z,28.50
2022-11-18T04:46:58.451Z,26.70
2022-11-18T04:48:03.228Z,31.60
2022-11-18T04:49:00.496Z,35.70
2022-11-18T04:49:58.492Z,29.30
2022-11-18T04:50:58.437Z,34.50
2022-11-18T04:51:58.424Z,38.60
2022-11-18T04:52:58.345Z,34.90
2022-11-18T04:53:58.336Z,30.60
2022-11-18T04:54:58.404Z,34.60
2022-11-18T04:55:58.330Z,38.80
2022-11-18T04:56:58.386Z,34.60
2022-11-18T04:57:58.319Z,34.30
2022-11-18T04:58:58.327Z,34.20
2022-11-18T04:59:58.359Z,38.80
2022-11-18T05:00:58.417Z,42.20
2022-11-18T05:01:58.372Z,35.90
2022-11-18T05:03:30.190Z,30.80
2022-11-18T05:03:58.245Z,39.70
2022-11-18T05:04:58.251Z,38.10
2022-11-18T05:05:58.264Z,36.50
2022-11-18T05:06:58.311Z,45.40
2022-11-18T05:07:58.247Z,41.70
2022-11-18T05:08:58.250Z,51.40
2022-11-18T05:09:58.213Z,44.00
2022-11-18T05:10:58.195Z,40.00
2022-11-18T05:11:58.213Z,43.30
2022-11-18T05:12:58.213Z,37.00
2022-11-18T05:13:58.179Z,36.30
2022-11-18T05:15:30.101Z,39.10
2022-11-18T05:16:30.087Z,39.40
2022-11-18T05:16:58.173Z,33.60
2022-11-18T05:17:58.213Z,32.50
2022-11-18T05:18:58.149Z,32.00
2022-11-18T05:19:58.177Z,66.90
2022-11-18T05:20:58.143Z,74.90
2022-11-18T05:21:58.162Z,40.20
2022-11-18T05:22:58.218Z,31.10
2022-11-18T05:23:58.092Z,34.90
2022-11-18T05:24:58.120Z,31.30
2022-11-18T05:26:02.328Z,30.20
2022-11-18T05:26:59.149Z,37.20
2022-11-18T05:27:58.068Z,37.40
2022-11-18T05:28:58.085Z,36.50
2022-11-18T05:29:58.074Z,39.50
2022-11-18T05:30:58.044Z,33.70
2022-11-18T05:31:58.075Z,32.30
2022-11-18T05:32:58.061Z,32.80
2022-11-18T05:33:58.537Z,34.40
2022-11-18T05:34:58.010Z,34.00
2022-11-18T05:35:58.108Z,31.20
2022-11-18T05:36:57.994Z,29.90
2022-11-18T05:37:57.988Z,34.20
2022-11-18T05:38:58.022Z,32.70
2022-11-18T05:39:58.058Z,33.60
2022-11-18T05:40:58.031Z,35.20
2022-11-18T05:41:57.981Z,32.10
2022-11-18T05:42:57.960Z,33.30
2022-11-18T05:43:57.927Z,29.10
2022-11-18T05:44:58.898Z,36.30
2022-11-18T05:45:59.000Z,36.10
2022-11-18T05:46:57.917Z,38.00
2022-11-18T05:47:57.964Z,40.60
2022-11-18T05:48:57.975Z,34.10
2022-11-18T05:49:57.942Z,39.00
2022-11-18T05:50:57.931Z,36.40
2022-11-18T05:51:57.937Z,47.60
2022-11-18T05:52:57.911Z,37.50
2022-11-18T05:53:57.848Z,36.10
2022-11-18T05:54:57.889Z,35.50
2022-11-18T05:55:57.906Z,35.00
2022-11-18T05:56:57.894Z,38.80
2022-11-18T05:57:57.848Z,34.80
2022-11-18T05:58:57.831Z,34.60
2022-11-18T05:59:57.847Z,31.50
2022-11-18T06:00:57.849Z,34.50
2022-11-18T06:01:57.834Z,31.50
2022-11-18T06:02:57.851Z,33.70
2022-11-18T06:03:57.816Z,34.40
2022-11-18T06:04:57.806Z,33.60
2022-11-18T06:05:57.772Z,33.00
2022-11-18T06:06:57.869Z,63.80
2022-11-18T06:07:57.791Z,107.50
2022-11-18T06:08:57.751Z,63.50
2022-11-18T06:10:02.111Z,74.80
2022-11-18T06:10:59.770Z,88.00
2022-11-18T06:11:57.754Z,109.80
2022-11-18T06:12:57.859Z,75.90
2022-11-18T06:13:57.898Z,78.10
2022-11-18T06:14:57.723Z,55.60
2022-11-18T06:15:57.693Z,56.00
2022-11-18T06:16:57.687Z,51.60
2022-11-18T06:17:57.708Z,41.80
2022-11-18T06:18:58.473Z,37.10
2022-11-18T06:19:57.768Z,34.40
2022-11-18T06:20:57.892Z,34.30
2022-11-18T06:21:57.662Z,33.60
2022-11-18T06:22:57.680Z,34.10
2022-11-18T06:23:57.663Z,31.00
2022-11-18T06:24:57.685Z,30.60
2022-11-18T06:25:57.674Z,31.50
2022-11-18T06:26:57.609Z,29.30
2022-11-18T06:27:57.598Z,31.90
2022-11-18T06:28:57.603Z,30.70
2022-11-18T06:29:57.593Z,30.30
2022-11-18T06:30:57.576Z,27.20
2022-11-18T06:31:57.578Z,27.40
2022-11-18T06:32:57.616Z,28.90
2022-11-18T06:33:57.569Z,33.10
2022-11-18T06:34:57.588Z,30.70
2022-11-18T06:35:57.551Z,25.60
2022-11-18T06:36:57.533Z,30.20
2022-11-18T06:37:57.538Z,34.90
2022-11-18T06:38:57.535Z,29.80
2022-11-18T06:39:57.566Z,29.20
2022-11-18T06:40:57.498Z,29.00
2022-11-18T06:41:57.519Z,28.10
2022-11-18T06:42:57.464Z,29.50
2022-11-18T06:43:57.458Z,27.80
2022-11-18T06:44:58.542Z,25.30
2022-11-18T06:45:57.474Z,30.10
2022-11-18T06:46:57.471Z,30.90
2022-11-18T06:47:57.465Z,31.40
2022-11-18T06:48:57.463Z,31.20
2022-11-18T06:49:57.454Z,30.70
2022-11-18T06:50:57.455Z,30.10
2022-11-18T06:51:58.193Z,31.80
2022-11-18T06:52:57.457Z,31.30
2022-11-18T06:53:57.407Z,33.60
2022-11-18T06:54:57.434Z,33.90
2022-11-18T06:55:57.377Z,30.40
2022-11-18T06:56:57.425Z,28.10
2022-11-18T06:57:57.405Z,31.10
2022-11-18T06:58:57.421Z,33.10
2022-11-18T07:00:01.817Z,32.00
2022-11-18T07:00:59.515Z,33.40
2022-11-18T07:01:57.342Z,37.10
2022-11-18T07:03:29.251Z,30.30
2022-11-18T07:03:57.396Z,30.10
2022-11-18T07:04:57.315Z,35.20
2022-11-18T07:05:57.318Z,36.40
2022-11-18T07:06:57.387Z,35.80
2022-11-18T07:07:58.265Z,33.10
2022-11-18T07:08:57.289Z,33.50
2022-11-18T07:09:58.065Z,34.00
2022-11-18T07:10:57.248Z,35.50
2022-11-18T07:11:57.247Z,35.20
2022-11-18T07:12:57.321Z,35.70
2022-11-18T07:13:57.273Z,33.70
2022-11-18T07:14:57.260Z,39.00
2022-11-18T07:15:57.246Z,39.60
2022-11-18T07:16:57.217Z,36.30
2022-11-18T07:17:57.226Z,35.90
2022-11-18T07:18:57.265Z,32.20
2022-11-18T07:19:57.239Z,34.20
2022-11-18T07:20:57.179Z,30.70
2022-11-18T07:21:57.195Z,29.10
2022-11-18T07:22:57.216Z,29.80
2022-11-18T07:23:58.181Z,26.50
2022-11-18T07:24:57.193Z,28.60
2022-11-18T07:25:57.163Z,28.00
2022-11-18T07:26:57.209Z,24.40
2022-11-18T07:27:57.150Z,25.40
2022-11-18T07:28:57.122Z,26.70
2022-11-18T07:29:57.115Z,23.90
2022-11-18T07:30:57.182Z,29.20
2022-11-18T07:31:57.120Z,30.50
2022-11-18T07:32:57.125Z,28.40
2022-11-18T07:33:57.076Z,29.80
2022-11-18T07:34:57.084Z,28.30
2022-11-18T07:35:58.064Z,30.70
2022-11-18T07:36:57.075Z,32.40
2022-11-18T07:37:57.046Z,29.80
2022-11-18T07:38:57.059Z,33.30
2022-11-18T07:39:57.036Z,29.10
2022-11-18T07:40:57.037Z,27.90
2022-11-18T07:41:57.025Z,26.90
2022-11-18T07:42:57.025Z,32.70
2022-11-18T07:44:00.480Z,27.50
2022-11-18T07:44:57.995Z,28.10
2022-11-18T07:45:56.997Z,29.80
2022-11-18T07:46:57.039Z,31.50
2022-11-18T07:47:56.991Z,29.00
2022-11-18T07:48:56.969Z,34.30
2022-11-18T07:49:56.938Z,26.10
2022-11-18T07:50:56.964Z,25.80
2022-11-18T07:51:57.018Z,26.40
2022-11-18T07:52:56.945Z,26.70
2022-11-18T07:53:56.922Z,31.00
2022-11-18T07:54:56.924Z,28.90
2022-11-18T07:55:56.897Z,30.60
2022-11-18T07:56:56.940Z,30.70
2022-11-18T07:57:56.923Z,35.50
2022-11-18T07:58:56.911Z,30.50
2022-11-18T07:59:56.894Z,35.70
2022-11-18T08:00:56.855Z,28.30
2022-11-18T08:01:56.937Z,26.40
2022-11-18T08:02:56.856Z,26.60
2022-11-18T08:03:56.872Z,26.70
2022-11-18T08:04:56.854Z,25.00
2022-11-18T08:05:56.853Z,26.60
2022-11-18T08:06:56.978Z,24.00
2022-11-18T08:07:56.808Z,26.70
2022-11-18T08:08:56.831Z,27.30
2022-11-18T08:09:56.799Z,27.90
2022-11-18T08:10:56.817Z,27.00
2022-11-18T08:11:56.784Z,27.30
2022-11-18T08:12:56.795Z,27.30
2022-11-18T08:13:56.794Z,26.40
2022-11-18T08:14:56.790Z,28.20
2022-11-18T08:15:56.758Z,27.70
2022-11-18T08:16:56.780Z,28.80
2022-11-18T08:17:56.754Z,30.80
2022-11-18T08:18:56.739Z,26.50
2022-11-18T08:19:56.785Z,29.60
2022-11-18T08:20:56.740Z,41.40
2022-11-18T08:21:56.733Z,54.00
2022-11-18T08:22:56.701Z,34.80
2022-11-18T08:23:56.763Z,61.00
2022-11-18T08:24:56.700Z,67.10
2022-11-18T08:25:56.725Z,77.60
2022-11-18T08:26:56.675Z,52.60
2022-11-18T08:27:56.669Z,63.00
2022-11-18T08:28:56.756Z,59.90
2022-11-18T08:29:56.685Z,60.90
2022-11-18T08:30:56.662Z,39.90
2022-11-18T08:31:56.658Z,39.40
2022-11-18T08:32:56.639Z,35.00
2022-11-18T08:33:56.608Z,30.10
2022-11-18T08:34:56.627Z,31.00
2022-11-18T08:35:56.665Z,29.40
2022-11-18T08:36:56.645Z,31.10
2022-11-18T08:37:56.660Z,35.20
2022-11-18T08:38:56.616Z,38.80
2022-11-18T08:39:56.669Z,36.30
2022-11-18T08:40:56.609Z,40.00
2022-11-18T08:41:56.588Z,34.70
2022-11-18T08:42:57.531Z,34.00
2022-11-18T08:43:56.539Z,36.20
2022-11-18T08:44:56.560Z,42.40
2022-11-18T08:45:56.556Z,39.00
2022-11-18T08:46:56.584Z,34.60
2022-11-18T08:47:56.554Z,43.30
2022-11-18T08:48:56.514Z,53.40
2022-11-18T08:49:56.493Z,49.20
2022-11-18T08:50:56.642Z,49.20
2022-11-18T08:51:56.506Z,41.80
2022-11-18T08:52:56.474Z,42.20
2022-11-18T08:53:57.545Z,37.70
2022-11-18T08:54:56.455Z,36.60
2022-11-18T08:55:57.356Z,39.90
2022-11-18T08:56:57.441Z,34.30
2022-11-18T08:57:56.436Z,34.50
2022-11-18T08:58:56.491Z,41.10
2022-11-18T08:59:56.497Z,35.30
2022-11-18T09:00:56.445Z,34.40
2022-11-18T09:01:57.552Z,32.30
2022-11-18T09:02:56.447Z,34.40
2022-11-18T09:03:56.522Z,34.30
2022-11-18T09:04:56.395Z,32.20
2022-11-18T09:05:56.432Z,32.80
2022-11-18T09:06:56.448Z,30.40
2022-11-18T09:07:56.442Z,29.90
2022-11-18T09:08:56.356Z,33.20
2022-11-18T09:09:56.382Z,32.60
2022-11-18T09:10:56.322Z,31.50
2022-11-18T09:15:41.995Z,40.50
2022-11-18T09:16:16.067Z,35.90
2022-11-18T09:17:47.920Z,33.10
2022-11-18T09:18:47.981Z,28.90
2022-11-18T09:19:45.467Z,28.80
2022-11-18T09:20:47.987Z,32.40
2022-11-18T09:21:48.413Z,33.10
2022-11-18T09:22:47.931Z,33.40
2022-11-18T09:23:16.010Z,35.80
2022-11-18T09:24:16.717Z,33.70
2022-11-18T09:25:47.924Z,36.00
2022-11-18T09:26:15.981Z,40.80
2022-11-18T09:27:47.848Z,32.00
2022-11-18T09:28:47.892Z,35.80
2022-11-18T09:29:15.969Z,32.80
2022-11-18T09:30:16.728Z,40.00
2022-11-18T09:31:15.944Z,36.80
2022-11-18T09:32:16.813Z,38.00
2022-11-18T09:33:20.371Z,41.00
2022-11-18T09:34:17.288Z,39.00
2022-11-18T09:35:15.889Z,37.40
2022-11-18T09:36:15.926Z,38.70
2022-11-18T09:37:48.811Z,37.10
2022-11-18T09:38:15.856Z,41.50
2022-11-18T09:39:16.055Z,40.10
2022-11-18T09:40:15.885Z,38.50
2022-11-18T09:41:15.884Z,40.10
2022-11-18T09:42:15.875Z,40.70
2022-11-18T09:43:15.827Z,38.20
2022-11-18T09:44:15.869Z,38.20
2022-11-18T09:45:20.743Z,35.60
2022-11-18T09:46:17.827Z,41.50
2022-11-18T09:47:16.793Z,43.50
2022-11-18T09:48:15.795Z,44.70
2022-11-18T09:49:16.177Z,48.10
2022-11-18T09:50:47.167Z,41.60
2022-11-18T09:51:17.801Z,37.60
2022-11-18T09:52:15.746Z,41.40
2022-11-18T09:53:15.738Z,32.40
2022-11-18T09:54:16.287Z,35.20
2022-11-18T09:55:15.850Z,35.80
2022-11-18T09:56:15.867Z,41.30
2022-11-18T09:57:15.720Z,40.60
2022-11-18T09:58:15.698Z,37.50
2022-11-18T09:59:15.694Z,42.40
2022-11-18T10:00:15.728Z,39.10
2022-11-18T10:01:15.779Z,44.80
2022-11-18T10:02:15.727Z,38.80
2022-11-18T10:03:15.694Z,32.60
2022-11-18T10:04:15.943Z,37.00
2022-11-18T10:05:15.640Z,34.60
2022-11-18T10:06:47.643Z,39.00
2022-11-18T10:07:47.670Z,41.60
2022-11-18T10:08:15.737Z,36.10
2022-11-18T10:09:47.549Z,37.70
2022-11-18T10:10:15.680Z,38.80
2022-11-18T10:11:15.646Z,41.50
2022-11-18T10:12:47.528Z,43.60
2022-11-18T10:13:15.627Z,44.90
2022-11-18T10:14:15.916Z,39.70
2022-11-18T10:15:15.800Z,45.80
2022-11-18T10:16:15.643Z,44.30
2022-11-18T10:17:15.592Z,46.10
2022-11-18T10:18:26.450Z,46.20
2022-11-18T10:19:17.547Z,47.00
2022-11-18T10:20:16.538Z,42.30
2022-11-18T10:21:15.529Z,47.50
2022-11-18T10:22:22.688Z,41.20
2022-11-18T10:23:17.507Z,41.00
2022-11-18T10:24:15.834Z,41.30
2022-11-18T10:25:15.670Z,45.50
2022-11-18T10:26:15.497Z,47.20
2022-11-18T10:27:15.520Z,37.00
2022-11-18T10:28:15.512Z,45.60
2022-11-18T10:29:15.463Z,40.90
2022-11-18T10:30:16.470Z,48.50
2022-11-18T10:31:15.440Z,35.80
2022-11-18T10:32:15.474Z,30.50
2022-11-18T10:33:15.450Z,33.60
2022-11-18T10:34:15.679Z,32.60
2022-11-18T10:35:15.471Z,30.60
2022-11-18T10:36:15.411Z,33.30
2022-11-18T10:37:15.415Z,28.10
2022-11-18T10:38:15.423Z,26.60
2022-11-18T10:39:15.507Z,23.90
2022-11-18T10:40:15.395Z,28.70
2022-11-18T10:41:15.398Z,25.00
2022-11-18T10:42:15.379Z,26.70
2022-11-18T10:43:15.401Z,28.50
2022-11-18T10:44:15.422Z,24.40
2022-11-18T10:45:15.402Z,28.60
2022-11-18T10:46:15.331Z,24.60
2022-11-18T10:47:15.340Z,23.60
2022-11-18T10:48:15.303Z,23.50
2022-11-18T10:49:15.377Z,18.20
2022-11-18T10:50:15.304Z,23.70
2022-11-18T10:51:15.367Z,20.10
2022-11-18T10:52:16.302Z,17.10
2022-11-18T10:53:15.271Z,21.80
2022-11-18T10:54:15.847Z,18.50
2022-11-18T10:55:15.294Z,18.70
2022-11-18T10:56:15.275Z,18.10
2022-11-18T10:57:15.321Z,17.50
2022-11-18T10:58:15.297Z,18.50
2022-11-18T10:59:15.261Z,15.60
2022-11-18T11:00:15.270Z,14.30
2022-11-18T11:01:15.306Z,12.80
2022-11-18T11:02:15.333Z,11.40
2022-11-18T11:03:15.296Z,10.80
2022-11-18T11:04:15.637Z,11.10
2022-11-18T11:05:15.192Z,12.60
2022-11-18T11:06:15.195Z,13.40
2022-11-18T11:07:15.244Z,15.90
2022-11-18T11:08:35.693Z,16.00
2022-11-18T11:09:17.163Z,15.90
2022-11-18T11:10:15.236Z,11.20
2022-11-18T11:11:15.148Z,9.90
2022-11-18T11:12:15.167Z,9.90
2022-11-18T11:13:15.157Z,11.10
2022-11-18T11:14:15.165Z,11.80
2022-11-18T11:15:15.115Z,11.70
2022-11-18T11:16:15.129Z,16.40
2022-11-18T11:17:15.236Z,15.00
2022-11-18T11:18:15.125Z,20.10
2022-11-18T11:19:15.112Z,19.00
2022-11-18T11:20:15.093Z,18.10
2022-11-18T11:21:15.085Z,20.10
2022-11-18T11:22:15.119Z,23.00
2022-11-18T11:23:19.111Z,20.90
2022-11-18T11:24:21.393Z,24.20
2022-11-18T11:25:15.038Z,28.70
2022-11-18T11:28:17.522Z,26.20
2022-11-18T11:29:15.299Z,31.40
2022-11-18T11:30:16.211Z,30.30
2022-11-18T11:31:14.999Z,29.10
2022-11-18T11:32:15.032Z,26.10
2022-11-18T11:33:14.996Z,26.10
2022-11-18T11:34:14.970Z,26.90
2022-11-18T11:35:14.977Z,31.60
2022-11-18T11:36:14.989Z,27.10
2022-11-18T11:37:15.020Z,27.80
2022-11-18T11:38:15.053Z,30.80
2022-11-18T11:39:14.953Z,25.30
2022-11-18T11:40:15.006Z,24.60
2022-11-18T11:41:14.937Z,23.50
2022-11-18T11:42:14.981Z,32.80
2022-11-18T11:43:14.974Z,29.50
2022-11-18T11:44:14.934Z,28.70
2022-11-18T11:45:14.911Z,28.10
2022-11-18T11:46:14.898Z,34.00
2022-11-18T11:47:15.832Z,30.50
2022-11-18T11:48:14.886Z,29.50
2022-11-18T11:49:15.312Z,33.00
2022-11-18T11:50:14.967Z,33.90
2022-11-18T11:51:14.910Z,36.90
2022-11-18T11:52:14.883Z,34.50
2022-11-18T11:53:14.852Z,35.10
2022-11-18T11:54:14.867Z,31.90
2022-11-18T11:55:14.871Z,32.80
2022-11-18T11:56:21.131Z,35.60
2022-11-18T11:57:16.858Z,38.30
2022-11-18T11:58:14.878Z,32.80
2022-11-18T11:59:14.911Z,32.60
2022-11-18T12:00:14.899Z,37.30
2022-11-18T12:01:14.791Z,38.30
2022-11-18T12:02:15.770Z,35.80
2022-11-18T12:03:14.770Z,35.30
2022-11-18T12:04:14.752Z,35.10
2022-11-18T12:05:14.791Z,28.10
2022-11-18T12:06:14.752Z,32.10
2022-11-18T12:07:14.914Z,31.40
2022-11-18T12:08:14.715Z,36.50
2022-11-18T12:09:14.748Z,32.10
2022-11-18T12:10:14.744Z,28.10
2022-11-18T12:11:14.736Z,28.40
2022-11-18T12:12:14.683Z,25.40
2022-11-18T12:13:14.694Z,22.10
2022-11-18T12:14:14.748Z,22.30
2022-11-18T12:15:14.693Z,19.00
2022-11-18T12:16:14.650Z,17.00
2022-11-18T12:17:14.695Z,17.60
2022-11-18T12:18:14.658Z,17.80
2022-11-18T12:19:14.684Z,17.80
2022-11-18T12:20:14.607Z,17.70
2022-11-18T12:21:15.642Z,15.60
2022-11-18T12:22:14.625Z,15.10
2022-11-18T12:23:14.595Z,15.70
2022-11-18T12:24:14.589Z,14.00
2022-11-18T12:25:14.596Z,14.30
2022-11-18T12:26:14.620Z,15.40
2022-11-18T12:27:14.604Z,11.10
2022-11-18T12:28:14.851Z,9.50
2022-11-18T12:29:14.592Z,10.10
2022-11-18T12:30:14.554Z,9.90
2022-11-18T12:31:14.522Z,10.80
2022-11-18T12:32:14.562Z,11.60
2022-11-18T12:33:14.533Z,10.30
2022-11-18T12:34:14.549Z,10.90
2022-11-18T12:35:14.549Z,12.40
2022-11-18T12:36:14.523Z,12.00
2022-11-18T12:37:14.529Z,13.10
2022-11-18T12:38:14.577Z,9.10
2022-11-18T12:39:14.672Z,10.10
2022-11-18T12:40:14.574Z,13.20
2022-11-18T12:41:14.463Z,11.80
2022-11-18T12:42:14.451Z,11.30
2022-11-18T12:43:14.490Z,10.50
2022-11-18T12:44:14.470Z,12.30
2022-11-18T12:45:14.468Z,11.50
2022-11-18T12:46:14.417Z,12.50
2022-11-18T12:47:14.432Z,13.20
2022-11-18T12:48:14.400Z,10.90
2022-11-18T12:49:14.541Z,11.20
2022-11-18T12:50:14.510Z,11.00
2022-11-18T12:51:14.941Z,10.20
2022-11-18T12:52:14.412Z,12.70
2022-11-18T12:53:14.430Z,12.80
2022-11-18T12:54:14.391Z,13.50
2022-11-18T12:55:14.498Z,12.10
2022-11-18T12:56:14.350Z,10.80
2022-11-18T12:57:15.449Z,14.10
2022-11-18T12:58:14.391Z,14.20
2022-11-18T12:59:14.471Z,13.40
2022-11-18T13:00:15.282Z,14.70
2022-11-18T13:01:14.407Z,16.30
2022-11-18T13:02:14.321Z,13.80
2022-11-18T13:03:14.301Z,12.70
2022-11-18T13:04:14.291Z,13.70
2022-11-18T13:05:14.401Z,11.60
2022-11-18T13:06:14.307Z,11.70
2022-11-18T13:07:14.433Z,14.00
2022-11-18T13:08:14.281Z,16.30
2022-11-18T13:09:14.258Z,14.70
2022-11-18T13:10:14.263Z,16.00
2022-11-18T13:11:14.328Z,15.00
2022-11-18T13:12:14.255Z,13.60
2022-11-18T13:13:14.256Z,16.70
2022-11-18T13:14:14.240Z,14.90
2022-11-18T13:15:14.236Z,16.50
2022-11-18T13:16:14.215Z,16.80
2022-11-18T13:17:14.234Z,14.90
2022-11-18T13:18:14.194Z,12.80
2022-11-18T13:19:14.188Z,14.00
2022-11-18T13:20:14.166Z,16.90
2022-11-18T13:21:14.135Z,14.50
2022-11-18T13:22:14.257Z,15.80
2022-11-18T13:23:14.138Z,12.40
2022-11-18T13:24:14.189Z,13.40
2022-11-18T13:25:14.136Z,14.20
2022-11-18T13:26:14.157Z,13.50
2022-11-18T13:27:14.150Z,16.20
2022-11-18T13:28:14.152Z,17.40
2022-11-18T13:29:14.161Z,16.30